Time;durP1;ratioP1;P1;durP2;ratioP2;P2;SDS_P1;SDS_P2;PMS_P1;PMS_P2;Temp;Humidity;BMP_temperature;BMP_pressure;BME280_temperature;BME280_humidity;BME280_pressure;Samples;Min_cycle;Max_cycle;Signal;HPM_P1;HPM_P2
2022/12/14 00:01:16;;;;;;;41.75;21.13;;;-3.40;99.90;;;;;;5092419;28;20043;-61
2022/12/14 00:03:42;;;;;;;43.70;19.92;;;;;;;;;;5092882;28;20039;-61
2022/12/14 00:06:12;;;;;;;41.28;19.42;;;-3.20;99.90;;;;;;5074631;28;20042;-61
2022/12/14 00:08:38;;;;;;;43.40;20.88;;;;;;;;;;5092823;28;20116;-60
2022/12/14 00:11:04;;;;;;;42.10;20.63;;;;;;;;;;5092463;28;20478;-61
2022/12/14 00:13:30;;;;;;;47.20;21.08;;;;;;;;;;5092612;28;20039;-61
2022/12/14 00:15:56;;;;;;;41.80;20.20;;;;;;;;;;5092394;28;20127;-61
2022/12/14 00:18:22;;;;;;;44.80;20.80;;;;;;;;;;5093331;28;20490;-61
2022/12/14 00:20:48;;;;;;;43.42;21.45;;;;;;;;;;5096619;28;20067;-61
2022/12/14 00:23:14;;;;;;;48.22;21.27;;;;;;;;;;5096559;28;20093;-61
2022/12/14 00:25:40;;;;;;;47.08;21.52;;;;;;;;;;5096333;28;20079;-61
2022/12/14 00:28:06;;;;;;;47.08;20.20;;;;;;;;;;5096252;28;20035;-61
2022/12/14 00:30:32;;;;;;;44.03;21.08;;;;;;;;;;5095949;28;20091;-61
2022/12/14 00:32:58;;;;;;;56.75;26.27;;;;;;;;;;5096423;28;20075;-61
2022/12/14 00:35:24;;;;;;;49.72;23.15;;;;;;;;;;5096418;28;20123;-61
2022/12/14 00:37:50;;;;;;;54.00;23.30;;;;;;;;;;5095897;28;20036;-61
2022/12/14 00:40:16;;;;;;;43.63;21.23;;;;;;;;;;5078072;28;20118;-61
2022/12/14 00:42:42;;;;;;;40.05;18.05;;;;;;;;;;5096067;28;20398;-61
2022/12/14 00:45:08;;;;;;;46.67;20.48;;;-3.50;99.90;;;;;;5095781;28;20044;-61
2022/12/14 00:47:34;;;;;;;43.92;19.52;;;;;;;;;;5096129;28;20032;-61
2022/12/14 00:50:00;;;;;;;43.60;19.83;;;;;;;;;;5096086;28;20119;-61
2022/12/14 00:52:26;;;;;;;43.47;19.83;;;;;;;;;;5095977;28;20066;-60
2022/12/14 00:54:52;;;;;;;45.75;19.77;;;;;;;;;;5096021;28;20044;-61
2022/12/14 00:57:18;;;;;;;47.47;21.13;;;;;;;;;;5095833;28;20039;-60
2022/12/14 00:59:44;;;;;;;41.33;20.30;;;;;;;;;;5095865;28;20058;-61
2022/12/14 01:02:10;;;;;;;43.58;20.52;;;;;;;;;;5095780;28;20040;-61
2022/12/14 01:04:36;;;;;;;42.20;19.52;;;;;;;;;;5095668;28;20532;-61
2022/12/14 01:07:02;;;;;;;45.72;19.52;;;;;;;;;;5095497;28;20043;-61
2022/12/14 01:09:28;;;;;;;40.88;19.40;;;;;;;;;;5081699;28;20036;-61
2022/12/14 01:11:54;;;;;;;39.95;19.67;;;;;;;;;;5095833;28;20051;-61
2022/12/14 01:14:21;;;;;;;44.47;20.05;;;;;;;;;;5095207;28;20378;-60
2022/12/14 01:16:47;;;;;;;45.00;21.02;;;;;;;;;;5095392;28;20097;-61
2022/12/14 01:19:14;;;;;;;48.42;21.42;;;;;;;;;;5095587;28;20145;-60
2022/12/14 01:21:40;;;;;;;45.33;20.13;;;;;;;;;;5077679;28;20075;-61
2022/12/14 01:24:07;;;;;;;45.15;20.73;;;;;;;;;;5095513;28;20040;-61
2022/12/14 01:26:36;;;;;;;37.25;18.83;;;-3.20;99.90;;;;;;5094752;28;20559;-61
2022/12/14 01:29:03;;;;;;;41.83;19.77;;;;;;;;;;5094373;28;20082;-61
2022/12/14 01:31:31;;;;;;;44.92;21.15;;;-3.40;99.90;;;;;;5095198;28;20118;-61
2022/12/14 01:33:58;;;;;;;42.58;20.13;;;-3.10;99.90;;;;;;5076924;28;20043;-61
2022/12/14 01:36:26;;;;;;;46.85;21.65;;;-3.30;99.90;;;;;;5095125;28;20062;-61
2022/12/14 01:38:57;;;;;;;43.55;19.38;;;;;;;;;;5095357;28;20107;-61
2022/12/14 01:41:28;;;;;;;52.00;21.45;;;-3.60;99.90;;;;;;5095141;28;20109;-61
2022/12/14 01:43:55;;;;;;;42.97;19.17;;;-3.50;99.90;;;;;;5094794;28;20039;-60
2022/12/14 01:46:27;;;;;;;45.85;20.77;;;;;;;;;;5095094;28;20127;-60
2022/12/14 01:48:55;;;;;;;46.42;19.33;;;;;;;;;;5095005;28;20035;-60
2022/12/14 01:51:24;;;;;;;37.72;18.77;;;-3.60;99.90;;;;;;5094829;28;20062;-60
2022/12/14 01:53:50;;;;;;;44.05;19.15;;;;;;;;;;5094722;28;20098;-61
2022/12/14 01:56:16;;;;;;;37.55;17.95;;;;;;;;;;5094849;28;20036;-60
2022/12/14 01:58:42;;;;;;;42.20;18.77;;;;;;;;;;5094729;28;20040;-61
2022/12/14 02:01:10;;;;;;;42.47;18.88;;;;;;;;;;5094669;28;20039;-60
2022/12/14 02:03:48;;;;;;;39.35;19.02;;;;;;;;;;5094802;28;20040;-60
2022/12/14 02:06:34;;;;;;;42.95;19.83;;;-3.50;99.90;;;;;;5063720;28;20482;-60
2022/12/14 02:09:01;;;;;;;38.30;17.98;;;-3.60;99.90;;;;;;5094278;28;20110;-61
2022/12/14 02:12:05;;;;;;;41.75;18.90;;;-3.70;99.90;;;;;;5094578;28;20093;-60
2022/12/14 02:14:32;;;;;;;37.50;16.95;;;;;;;;;;5092020;28;20059;-60
2022/12/14 02:16:58;;;;;;;39.80;18.05;;;;;;;;;;5094629;28;20072;-61
2022/12/14 02:19:24;;;;;;;40.65;18.20;;;;;;;;;;5094026;28;20059;-60
2022/12/14 02:21:53;;;;;;;36.42;17.42;;;;;;;;;;5094365;28;20043;-60
2022/12/14 02:24:40;;;;;;;39.35;18.80;;;-4.00;99.90;;;;;;5094201;28;20064;-60
2022/12/14 02:27:12;;;;;;;41.28;18.27;;;;;;;;;;5094018;28;20051;-61
2022/12/14 02:29:47;;;;;;;32.85;16.63;;;;;;;;;;5100511;28;20073;-60
2022/12/14 02:32:13;;;;;;;;;;;;;;;;;;5115062;28;20051;-59
2022/12/14 02:35:00;;;;;;;32.95;15.88;;;;;;;;;;5108284;28;19919;-61
2022/12/14 02:37:29;;;;;;;41.85;16.38;;;;;;;;;;5093898;28;20051;-61
2022/12/14 02:40:06;;;;;;;37.25;17.25;;;-4.80;99.90;;;;;;5094127;28;20036;-61
2022/12/14 02:42:36;;;;;;;35.75;16.95;;;;;;;;;;5107433;28;20046;-61
2022/12/14 02:45:17;;;;;;;37.20;17.42;;;;;;;;;;5094050;28;20461;-61
2022/12/14 02:48:00;;;;;;;31.42;16.35;;;-5.10;99.90;;;;;;5107887;28;20117;-61
2022/12/14 02:51:02;;;;;;;34.35;15.43;;;-5.00;99.90;;;;;;5093646;28;20098;-61
2022/12/14 02:53:31;;;;;;;34.22;16.48;;;;;;;;;;5060691;28;20141;-60
2022/12/14 02:55:58;;;;;;;32.83;15.13;;;;;;;;;;5093621;28;20052;-61
2022/12/14 02:58:31;;;;;;;31.83;15.43;;;;;;;;;;5102278;28;20032;-61
2022/12/14 03:00:58;;;;;;;34.95;16.42;;;;;;;;;;5097903;28;20047;-61
2022/12/14 03:03:24;;;;;;;32.53;15.23;;;;;;;;;;5100885;28;20043;-60
2022/12/14 03:05:56;;;;;;;34.13;16.52;;;;;;;;;;5100327;28;20375;-61
2022/12/14 03:08:22;;;;;;;34.70;16.52;;;;;;;;;;5079559;28;20046;-60
2022/12/14 03:10:54;;;;;;;33.45;14.82;;;;;;;;;;5093463;28;20062;-59
2022/12/14 03:13:23;;;;;;;32.88;15.10;;;;;;;;;;5093245;28;20039;-61
2022/12/14 03:16:06;;;;;;;31.95;15.90;;;-5.40;99.90;;;;;;5092914;28;20119;-61
2022/12/14 03:18:35;;;;;;;34.65;16.55;;;;;;;;;;5107592;28;20463;-61
2022/12/14 03:21:04;;;;;;;36.97;15.30;;;-5.70;99.90;;;;;;5105956;28;20119;-61
2022/12/14 03:23:32;;;;;;;33.42;14.73;;;;;;;;;;5094311;28;20043;-61
2022/12/14 03:26:26;;;;;;;30.90;15.10;;;-5.70;99.90;;;;;;5093080;28;20101;-61
2022/12/14 03:29:09;;;;;;;32.47;14.70;;;-5.60;99.90;;;;;;5079920;28;20109;-61
2022/12/14 03:32:01;;;;;;;35.53;16.30;;;;;;;;;;5093192;28;20040;-61
2022/12/14 03:34:35;;;;;;;35.80;16.73;;;;;;;;;;5090149;28;20054;-60
2022/12/14 03:37:05;;;;;;;37.58;16.30;;;;;;;;;;5096024;28;20114;-61
2022/12/14 03:39:33;;;;;;;30.52;15.40;;;-5.70;99.90;;;;;;5103678;28;20036;-61
2022/12/14 03:42:05;;;;;;;35.33;15.10;;;;;;;;;;5092949;28;20032;-61
2022/12/14 03:44:31;;;;;;;31.00;15.07;;;;;;;;;;5092970;28;20045;-61
2022/12/14 03:47:23;;;;;;;36.03;16.50;;;-5.70;99.90;;;;;;5074947;28;20050;-61
2022/12/14 03:49:55;;;;;;;33.20;15.32;;;;;;;;;;5092298;28;20101;-61
2022/12/14 03:52:27;;;;;;;35.05;16.40;;;;;;;;;;5093481;28;20440;-60
2022/12/14 03:54:59;;;;;;;37.47;16.83;;;;;;;;;;5097037;28;20093;-61
2022/12/14 03:57:38;;;;;;;33.13;15.18;;;;;;;;;;5081990;28;20051;-60
2022/12/14 04:00:10;;;;;;;36.15;15.55;;;-6.10;99.90;;;;;;5088211;28;20048;-61
2022/12/14 04:02:43;;;;;;;34.95;15.48;;;;;;;;;;5097241;28;20036;-61
2022/12/14 04:05:14;;;;;;;36.92;16.00;;;;;;;;;;5089439;28;20137;-61
2022/12/14 04:07:43;;;;;;;35.80;16.73;;;;;;;;;;5099322;28;20036;-61
2022/12/14 04:18:59;;;;;;;38.85;17.42;;;;;;;;;;5096795;28;20036;-60
2022/12/14 04:21:44;;;;;;;34.03;17.48;;;;;;;;;;5111091;28;20031;-61
2022/12/14 04:27:39;;;;;;;37.78;17.15;;;;;;;;;;5107700;28;20039;-61
2022/12/14 04:30:06;;;;;;;31.08;16.58;;;;;;;;;;5077668;28;20060;-61
2022/12/14 04:32:59;;;;;;;36.92;15.68;;;-6.00;99.90;;;;;;5108723;28;20096;-61
2022/12/14 04:35:28;;;;;;;36.97;16.88;;;;;;;;;;5083707;28;20119;-61
2022/12/14 04:37:58;;;;;;;39.17;17.48;;;;;;;;;;5106866;28;20039;-61
2022/12/14 04:40:37;;;;;;;38.03;17.80;;;-6.10;99.90;;;;;;5099115;28;20063;-60
2022/12/14 04:43:04;;;;;;;35.90;16.63;;;;;;;;;;5096142;28;20040;-61
2022/12/14 04:45:32;;;;;;;36.50;16.77;;;;;;;;;;5096070;28;20043;-61
2022/12/14 04:48:14;;;;;;;39.55;17.98;;;;;;;;;;5077791;28;20051;-60
2022/12/14 04:50:44;;;;;;;40.80;18.08;;;;;;;;;;5110362;28;20499;-60
2022/12/14 04:53:13;;;;;;;39.15;17.42;;;;;;;;;;5096010;28;20071;-60
2022/12/14 04:55:43;;;;;;;36.15;16.70;;;;;;;;;;5098162;28;20040;-60
2022/12/14 04:58:11;;;;;;;36.42;16.90;;;;;;;;;;5107192;28;20398;-60
2022/12/14 05:00:42;;;;;;;37.15;15.55;;;;;;;;;;5095852;28;20036;-60
2022/12/14 05:03:11;;;;;;;38.05;16.38;;;;;;;;;;5095893;28;20039;-60
2022/12/14 05:05:45;;;;;;;34.13;15.30;;;;;;;;;;5076746;28;20100;-60
2022/12/14 05:08:11;;;;;;;36.40;16.77;;;;;;;;;;5095851;28;20032;-61
2022/12/14 05:10:46;;;;;;;34.58;16.00;;;;;;;;;;5109495;28;20044;-60
2022/12/14 05:13:12;;;;;;;33.78;15.52;;;;;;;;;;5089033;28;20047;-61
2022/12/14 05:15:46;;;;;;;35.58;17.65;;;;;;;;;;5095553;28;20410;-61
2022/12/14 05:18:12;;;;;;;39.80;16.95;;;;;;;;;;5095446;28;20824;-61
2022/12/14 05:20:38;;;;;;;34.55;15.23;;;;;;;;;;5107864;28;20047;-60
2022/12/14 05:23:04;;;;;;;32.85;15.88;;;;;;;;;;5101610;28;20053;-61
2022/12/14 05:25:30;;;;;;;35.72;15.43;;;;;;;;;;5105076;28;20493;-60
2022/12/14 05:27:56;;;;;;;38.78;16.58;;;;;;;;;;5099644;28;20051;-61
2022/12/14 05:30:22;;;;;;;35.83;15.70;;;;;;;;;;5094921;28;20087;-59
2022/12/14 05:32:49;;;;;;;37.22;16.80;;;;;;;;;;5095345;28;20052;-60
2022/12/14 05:35:15;;;;;;;41.22;17.65;;;;;;;;;;5095115;28;20032;-61
2022/12/14 05:37:41;;;;;;;39.10;16.42;;;;;;;;;;5103540;28;20035;-60
2022/12/14 05:40:07;;;;;;;37.97;16.42;;;;;;;;;;5100539;28;20043;-61
2022/12/14 05:42:34;;;;;;;36.08;15.98;;;;;;;;;;5095249;28;20042;-60
2022/12/14 05:44:59;;;;;;;35.42;16.25;;;;;;;;;;5095022;28;20040;-60
2022/12/14 05:47:26;;;;;;;35.10;16.08;;;;;;;;;;5109211;28;20501;-61
2022/12/14 05:49:52;;;;;;;33.97;15.35;;;;;;;;;;5094943;28;20114;-60
2022/12/14 05:52:18;;;;;;;36.13;16.20;;;;;;;;;;5094628;28;20506;-61
2022/12/14 05:54:44;;;;;;;32.85;15.95;;;;;;;;;;5094979;28;20044;-61
2022/12/14 05:57:11;;;;;;;33.95;14.88;;;;;;;;;;5077363;28;20047;-60
2022/12/14 05:59:38;;;;;;;29.80;15.05;;;;;;;;;;5107795;28;20394;-61
2022/12/14 06:02:04;;;;;;;31.67;13.73;;;;;;;;;;5094714;28;20200;-60
2022/12/14 06:04:30;;;;;;;31.20;15.77;;;;;;;;;;5094332;28;20151;-61
2022/12/14 06:06:55;;;;;;;33.67;15.68;;;;;;;;;;5094657;28;20072;-60
2022/12/14 06:09:22;;;;;;;33.95;15.52;;;;;;;;;;5094219;28;20062;-61
2022/12/14 06:11:48;;;;;;;33.55;15.45;;;;;;;;;;5094413;28;20048;-61
2022/12/14 06:14:15;;;;;;;34.92;15.07;;;;;;;;;;5094314;28;20090;-60
2022/12/14 06:16:41;;;;;;;37.70;16.55;;;;;;;;;;5094142;28;20040;-60
2022/12/14 06:19:07;;;;;;;33.42;15.45;;;;;;;;;;5094468;28;20111;-61
2022/12/14 06:21:34;;;;;;;30.35;14.95;;;;;;;;;;5094148;28;20455;-61
2022/12/14 06:24:01;;;;;;;34.80;15.18;;;;;;;;;;5094108;28;20043;-61
2022/12/14 06:26:28;;;;;;;33.47;15.77;;;;;;;;;;5094290;28;20081;-60
2022/12/14 06:28:54;;;;;;;32.25;14.85;;;;;;;;;;5093709;28;20402;-60
2022/12/14 06:31:22;;;;;;;36.05;15.32;;;;;;;;;;5093947;28;20043;-61
2022/12/14 06:33:48;;;;;;;30.52;14.98;;;;;;;;;;5075921;28;20500;-60
2022/12/14 06:36:16;;;;;;;29.45;14.15;;;;;;;;;;5093631;28;20502;-61
2022/12/14 06:38:42;;;;;;;32.13;15.15;;;;;;;;;;5089768;28;20047;-60
2022/12/14 06:41:08;;;;;;;32.67;14.45;;;;;;;;;;5075747;28;20615;-61
2022/12/14 06:43:34;;;;;;;35.35;14.73;;;;;;;;;;5093825;28;20077;-61
2022/12/14 06:46:00;;;;;;;32.75;15.30;;;;;;;;;;5093983;28;20036;-61
2022/12/14 06:48:26;;;;;;;36.42;15.38;;;;;;;;;;5093828;28;20044;-60
2022/12/14 06:50:52;;;;;;;31.02;13.85;;;;;;;;;;5089942;28;20042;-61
2022/12/14 06:53:18;;;;;;;31.20;13.95;;;;;;;;;;5093440;28;20058;-60
2022/12/14 06:55:44;;;;;;;29.55;13.55;;;;;;;;;;5075279;28;20524;-61
2022/12/14 06:58:12;;;;;;;34.30;13.77;;;;;;;;;;5084650;28;20031;-60
2022/12/14 07:00:38;;;;;;;28.52;13.80;;;;;;;;;;5098168;28;20044;-60
2022/12/14 07:03:04;;;;;;;31.65;13.35;;;;;;;;;;5093565;28;20485;-60
2022/12/14 07:05:30;;;;;;;28.13;14.15;;;;;;;;;;5093700;28;20047;-60
2022/12/14 07:07:56;;;;;;;30.55;13.27;;;;;;;;;;5093147;28;20081;-60
2022/12/14 07:10:22;;;;;;;32.83;15.45;;;;;;;;;;5093535;28;20402;-60
2022/12/14 07:12:48;;;;;;;33.85;15.05;;;;;;;;;;5092356;28;20161;-59
2022/12/14 07:15:14;;;;;;;36.50;15.43;;;;;;;;;;5112467;28;20054;-61
2022/12/14 07:17:40;;;;;;;28.42;13.18;;;;;;;;;;5107577;28;20031;-60
2022/12/14 07:20:06;;;;;;;32.53;15.57;;;;;;;;;;5096174;28;20389;-60
2022/12/14 07:22:33;;;;;;;35.58;16.02;;;;;;;;;;5098464;28;20106;-60
2022/12/14 07:24:59;;;;;;;40.30;16.33;;;;;;;;;;5095655;28;20486;-59
2022/12/14 07:27:25;;;;;;;34.65;14.77;;;;;;;;;;5092633;28;20397;-60
2022/12/14 07:29:51;;;;;;;41.22;16.88;;;;;;;;;;5093123;28;20113;-59
2022/12/14 07:32:17;;;;;;;34.17;15.68;;;;;;;;;;5095858;28;20039;-61
2022/12/14 07:34:43;;;;;;;32.22;15.85;;;;;;;;;;5092773;28;20085;-60
2022/12/14 07:37:09;;;;;;;32.35;14.57;;;;;;;;;;5099548;28;20035;-60
2022/12/14 07:39:35;;;;;;;35.63;16.02;;;;;;;;;;5103071;28;20118;-62
2022/12/14 07:42:01;;;;;;;40.47;16.77;;;;;;;;;;5095172;28;20096;-62
2022/12/14 07:44:27;;;;;;;31.35;14.73;;;;;;;;;;5104875;28;20051;-62
2022/12/14 07:46:53;;;;;;;33.20;14.45;;;;;;;;;;5074724;28;20069;-61
2022/12/14 07:49:19;;;;;;;30.83;14.85;;;;;;;;;;5092903;28;20051;-62
2022/12/14 07:51:45;;;;;;;31.58;16.38;;;;;;;;;;5105292;28;20039;-61
2022/12/14 07:54:12;;;;;;;39.97;17.75;;;;;;;;;;5093380;28;20540;-63
2022/12/14 07:56:39;;;;;;;38.40;17.23;;;;;;;;;;5091349;28;20394;-63
2022/12/14 07:59:07;;;;;;;39.05;18.30;;;;;;;;;;5078312;28;20109;-63
2022/12/14 08:01:34;;;;;;;38.25;17.42;;;;;;;;;;5096733;28;20398;-64
2022/12/14 08:04:07;;;;;;;40.47;18.02;;;;;;;;;;5096263;28;20043;-62
2022/12/14 08:06:34;;;;;;;37.70;16.75;;;;;;;;;;5091200;28;20082;-64
2022/12/14 08:09:00;;;;;;;36.25;17.00;;;;;;;;;;5093732;28;20032;-63
2022/12/14 08:11:26;;;;;;;41.78;18.20;;;;;;;;;;5092749;28;20367;-63
2022/12/14 08:13:55;;;;;;;41.78;18.63;;;;;;;;;;5094685;28;20097;-64
2022/12/14 08:16:22;;;;;;;38.60;16.70;;;;;;;;;;5078968;28;20122;-63
2022/12/14 08:18:48;;;;;;;36.97;17.02;;;;;;;;;;5094295;28;20040;-63
2022/12/14 08:21:16;;;;;;;43.78;19.75;;;;;;;;;;5081700;28;20032;-62
2022/12/14 08:23:42;;;;;;;36.95;18.70;;;;;;;;;;5091609;28;20460;-64
2022/12/14 08:26:08;;;;;;;41.72;18.38;;;;;;;;;;5109128;28;20036;-63
2022/12/14 08:28:35;;;;;;;39.10;18.88;;;-5.90;99.90;;;;;;5090694;28;20047;-64
2022/12/14 08:31:05;;;;;;;43.83;18.88;;;;;;;;;;5109393;28;20548;-63
2022/12/14 08:33:35;;;;;;;37.45;16.77;;;-5.40;99.90;;;;;;5092268;28;20069;-64
2022/12/14 08:36:10;;;;;;;39.28;15.93;;;;;;;;;;5104576;28;20070;-64
2022/12/14 08:38:36;;;;;;;32.05;15.43;;;;;;;;;;5106838;28;20097;-64
2022/12/14 08:41:03;;;;;;;37.65;17.58;;;;;;;;;;5095773;28;20418;-63
2022/12/14 08:43:29;;;;;;;34.95;14.27;;;;;;;;;;5096015;28;20119;-64
2022/12/14 08:45:55;;;;;;;34.17;16.42;;;;;;;;;;5096067;28;20040;-64
2022/12/14 08:48:21;;;;;;;27.58;13.27;;;;;;;;;;5077902;28;20054;-64
2022/12/14 08:50:47;;;;;;;30.48;14.52;;;;;;;;;;5100217;28;20042;-64
2022/12/14 08:53:13;;;;;;;29.90;13.75;;;;;;;;;;5087464;28;20486;-64
2022/12/14 08:55:39;;;;;;;37.10;13.88;;;;;;;;;;5110030;28;20035;-64
2022/12/14 08:58:05;;;;;;;27.20;13.80;;;;;;;;;;5095824;28;20032;-64
2022/12/14 09:00:31;;;;;;;33.85;15.02;;;;;;;;;;5077578;28;20071;-64
2022/12/14 09:02:57;;;;;;;30.20;14.23;;;;;;;;;;5095545;28;20036;-64
2022/12/14 09:05:24;;;;;;;30.95;15.82;;;;;;;;;;5095703;28;20375;-64
2022/12/14 09:07:50;;;;;;;30.58;13.73;;;;;;;;;;5077208;28;20066;-64
2022/12/14 09:10:16;;;;;;;34.97;14.95;;;;;;;;;;5077523;28;20529;-64
2022/12/14 09:12:42;;;;;;;28.80;14.75;;;;;;;;;;5095488;28;20124;-64
2022/12/14 09:15:08;;;;;;;29.88;14.35;;;-2.40;99.90;;;;;;5095467;28;20119;-64
2022/12/14 09:17:34;;;;;;;31.23;14.07;;;;;;;;;;5076958;28;20040;-64
2022/12/14 09:20:00;;;;;;;32.90;16.48;;;;;;;;;;5102267;28;20523;-64
2022/12/14 09:22:26;;;;;;;31.73;15.32;;;;;;;;;;5084424;28;20088;-64
2022/12/14 09:24:51;;;;;;;33.65;14.48;;;;;;;;;;5092419;28;20039;-65
2022/12/14 09:27:18;;;;;;;35.95;16.08;;;;;;;;;;5088577;28;20055;-65
2022/12/14 09:29:43;;;;;;;36.03;14.50;;;;;;;;;;5084017;28;20058;-65
2022/12/14 09:32:09;;;;;;;29.25;14.07;;;;;;;;;;5084465;28;20051;-65
2022/12/14 09:34:35;;;;;;;32.25;14.25;;;;;;;;;;5095245;28;20486;-65
2022/12/14 09:37:03;;;;;;;30.90;15.27;;;;;;;;;;5084801;28;20062;-65
2022/12/14 09:39:30;;;;;;;37.80;16.77;;;;;;;;;;5087762;28;20048;-65
2022/12/14 09:42:19;;;;;;;34.35;15.80;;;-1.50;99.90;;;;;;5093261;28;20086;-64
2022/12/14 09:44:45;;;;;;;29.58;14.73;;;;;;;;;;5104475;28;20140;-63
2022/12/14 09:47:24;;;;;;;31.48;15.73;;;-1.00;99.90;;;;;;5097600;28;20518;-63
2022/12/14 09:49:54;;;;;;;35.67;15.95;;;0.40;99.90;;;;;;5086093;28;20040;-64
2022/12/14 09:52:49;;;;;;;30.92;14.63;;;0.50;99.90;;;;;;5108660;28;20035;-64
2022/12/14 09:55:36;;;;;;;27.33;15.10;;;0.20;99.90;;;;;;5073054;28;20208;-64
2022/12/14 09:58:20;;;;;;;33.28;15.25;;;0.00;99.90;;;;;;5064273;28;20791;-64
2022/12/14 10:01:30;;;;;;;30.08;14.82;;;0.10;99.90;;;;;;5108939;28;20211;-64
2022/12/14 10:04:30;;;;;;;25.95;13.63;;;-0.10;99.90;;;;;;5094662;28;20375;-64
2022/12/14 10:07:19;;;;;;;30.85;14.32;;;0.70;99.90;;;;;;5073589;28;20136;-64
2022/12/14 10:09:48;;;;;;;30.38;14.30;;;2.00;99.90;;;;;;5080715;28;20085;-64
2022/12/14 10:12:50;;;;;;;28.90;14.80;;;1.30;99.90;;;;;;5089218;28;20100;-64
2022/12/14 10:15:17;;;;;;;29.00;14.13;;;;;;;;;;5066171;28;20438;-64
2022/12/14 10:18:02;;;;;;;31.08;14.32;;;0.70;99.90;;;;;;5094470;28;20040;-64
2022/12/14 10:20:39;;;;;;;31.13;14.27;;;0.70;99.90;;;;;;5094172;28;20047;-64
2022/12/14 10:23:12;;;;;;;28.05;13.48;;;0.60;99.90;;;;;;5080420;28;20040;-64
2022/12/14 10:25:39;;;;;;;28.33;13.27;;;;;;;;;;5085139;28;20056;-65
2022/12/14 10:28:16;;;;;;;26.67;13.15;;;1.60;99.90;;;;;;5074640;28;20502;-65
2022/12/14 10:30:42;;;;;;;27.10;13.30;;;1.10;99.90;;;;;;5093465;28;20056;-65
2022/12/14 10:33:30;;;;;;;31.88;14.02;;;0.80;99.90;;;;;;5097302;28;20408;-66
2022/12/14 10:36:27;;;;;;;24.38;12.93;;;0.80;99.90;;;;;;5106533;28;20035;-66
2022/12/14 10:39:01;;;;;;;27.25;13.32;;;0.70;99.90;;;;;;5111694;28;20030;-65
2022/12/14 10:41:54;;;;;;;29.50;14.10;;;1.00;99.90;;;;;;5108314;28;20039;-64
2022/12/14 10:44:43;;;;;;;30.80;14.25;;;1.30;99.90;;;;;;5079672;28;20443;-65
2022/12/14 10:47:15;;;;;;;30.63;15.20;;;;;;;;;;5080860;28;20050;-64
2022/12/14 10:49:54;;;;;;;28.92;14.32;;;0.80;99.90;;;;;;5097233;28;20035;-63
2022/12/14 10:52:22;;;;;;;27.83;14.85;;;;;;;;;;5107940;28;20032;-64
2022/12/14 10:55:12;;;;;;;31.27;15.07;;;0.80;99.90;;;;;;5098047;28;20032;-65
2022/12/14 10:57:38;;;;;;;27.83;13.75;;;;;;;;;;5083472;28;20035;-64
2022/12/14 11:00:13;;;;;;;31.48;14.38;;;0.60;99.90;;;;;;5112599;28;20097;-64
2022/12/14 11:02:42;;;;;;;27.77;14.43;;;0.70;99.90;;;;;;5094950;28;20032;-64
2022/12/14 11:05:34;;;;;;;27.80;14.20;;;;;;;;;;5085466;28;20044;-64
2022/12/14 11:08:00;;;;;;;26.85;13.27;;;;;;;;;;5090587;28;20105;-64
2022/12/14 11:10:28;;;;;;;27.17;13.73;;;0.60;99.90;;;;;;5093318;28;20093;-64
2022/12/14 11:13:12;;;;;;;26.13;13.50;;;0.70;99.90;;;;;;5098858;28;20060;-64
2022/12/14 11:15:47;;;;;;;28.05;13.82;;;0.50;99.90;;;;;;5103230;28;20035;-64
2022/12/14 11:18:15;;;;;;;28.17;14.33;;;0.70;99.90;;;;;;5084681;28;20119;-65
2022/12/14 11:21:01;;;;;;;24.92;13.25;;;0.60;99.90;;;;;;5084254;28;20038;-64
2022/12/14 11:23:36;;;;;;;27.85;13.98;;;0.60;99.90;;;;;;5073188;28;20052;-64
2022/12/14 11:26:06;;;;;;;24.45;12.75;;;0.70;99.90;;;;;;5092785;28;20035;-64
2022/12/14 11:28:55;;;;;;;25.02;13.43;;;1.00;99.90;;;;;;5082647;28;20119;-66
2022/12/14 11:31:42;;;;;;;26.48;13.23;;;0.90;99.90;;;;;;5071119;28;20036;-64
2022/12/14 11:34:45;;;;;;;25.45;13.02;;;0.70;99.90;;;;;;5099558;28;20032;-64
2022/12/14 11:37:13;;;;;;;26.75;14.43;;;;;;;;;;5076409;28;20076;-65
2022/12/14 11:39:43;;;;;;;29.08;14.40;;;0.60;99.90;;;;;;5083469;28;20097;-65
2022/12/14 11:42:18;;;;;;;27.45;12.90;;;0.80;99.90;;;;;;5089383;28;20508;-64
2022/12/14 11:44:45;;;;;;;25.63;13.52;;;;;;;;;;5058267;28;20043;-65
2022/12/14 11:47:14;;;;;;;25.45;13.77;;;1.00;99.90;;;;;;5074687;28;20090;-64
2022/12/14 11:49:40;;;;;;;27.40;13.82;;;;;;;;;;5074910;28;20083;-65
2022/12/14 11:52:23;;;;;;;24.90;14.18;;;;;;;;;;5106867;28;20508;-65
2022/12/14 11:54:52;;;;;;;26.15;12.52;;;0.70;99.90;;;;;;5074607;28;20055;-64
2022/12/14 11:57:28;;;;;;;28.30;14.60;;;0.60;99.90;;;;;;5105376;28;20035;-65
2022/12/14 12:00:00;;;;;;;26.30;12.98;;;0.60;99.90;;;;;;5076462;28;20036;-64
2022/12/14 12:02:32;;;;;;;27.20;13.55;;;;;;;;;;5072887;28;20249;-66
2022/12/14 12:05:07;;;;;;;25.13;12.20;;;;;;;;;;5091246;28;20072;-66
2022/12/14 12:07:41;;;;;;;26.63;13.38;;;1.00;99.90;;;;;;5079229;28;20044;-66
2022/12/14 12:10:19;;;;;;;27.35;13.45;;;1.00;99.90;;;;;;5070531;28;20549;-66
2022/12/14 12:12:58;;;;;;;26.67;12.65;;;1.10;99.90;;;;;;5088996;28;20434;-66
2022/12/14 12:15:28;;;;;;;25.38;12.43;;;;;;;;;;5105478;28;20040;-66
2022/12/14 12:18:01;;;;;;;24.73;12.45;;;1.10;99.90;;;;;;5080702;28;20389;-66
2022/12/14 12:20:34;;;;;;;22.38;11.27;;;1.00;99.90;;;;;;5088209;28;20119;-66
2022/12/14 12:23:13;;;;;;;23.80;12.73;;;1.40;99.90;;;;;;5091836;28;20079;-66
2022/12/14 12:25:41;;;;;;;29.02;11.52;;;1.40;99.90;;;;;;5091168;28;20080;-66
2022/12/14 12:28:30;;;;;;;23.10;13.23;;;1.40;99.90;;;;;;5094443;28;20122;-66
2022/12/14 12:30:59;;;;;;;28.42;14.27;;;;;;;;;;5093780;28;20058;-65
2022/12/14 12:33:41;;;;;;;24.33;13.18;;;1.60;99.90;;;;;;5092232;28;20104;-65
2022/12/14 12:36:07;;;;;;;22.70;13.57;;;1.90;99.90;;;;;;5094861;28;20040;-65
2022/12/14 12:38:58;;;;;;;23.48;13.35;;;2.20;99.90;;;;;;5111673;28;20055;-66
2022/12/14 12:42:11;;;;;;;21.00;12.48;;;2.60;99.90;;;;;;5112917;28;20040;-66
2022/12/14 12:44:59;;;;;;;23.55;12.13;;;2.60;99.90;;;;;;5054184;28;20056;-66
2022/12/14 12:47:27;;;;;;;24.30;12.82;;;2.50;99.90;;;;;;5109520;28;20096;-66
2022/12/14 12:49:57;;;;;;;19.27;10.93;;;2.50;99.90;;;;;;5078469;28;20126;-66
2022/12/14 12:52:29;;;;;;;15.88;10.93;;;2.60;99.90;;;;;;5098262;28;20032;-66
2022/12/14 12:55:07;;;;;;;17.45;10.60;;;2.50;99.90;;;;;;5095714;28;20039;-66
2022/12/14 12:57:39;;;;;;;18.35;9.95;;;2.50;99.90;;;;;;5069724;28;20120;-66
2022/12/14 13:00:06;;;;;;;19.25;10.20;;;;;;;;;;5109516;28;20416;-66
2022/12/14 13:02:35;;;;;;;17.70;10.40;;;2.30;99.90;;;;;;5080525;28;20044;-66
2022/12/14 13:05:06;;;;;;;19.05;10.32;;;2.30;99.90;;;;;;5107688;28;20039;-64
2022/12/14 13:07:45;;;;;;;19.75;10.25;;;2.40;99.90;;;;;;5072546;28;20047;-66
2022/12/14 13:10:29;;;;;;;20.17;10.57;;;2.00;99.90;;;;;;5084284;28;20036;-65
2022/12/14 13:13:15;;;;;;;16.88;9.93;;;2.00;99.90;;;;;;5099087;28;20435;-65
2022/12/14 13:15:44;;;;;;;17.73;10.85;;;;;;;;;;5094065;28;20092;-65
2022/12/14 13:18:28;;;;;;;18.75;11.32;;;;;;;;;;5106117;28;20035;-64
2022/12/14 13:20:55;;;;;;;18.23;10.20;;;2.00;99.90;;;;;;5087662;28;20036;-64
2022/12/14 13:23:23;;;;;;;20.35;10.35;;;2.10;99.90;;;;;;5095486;28;20028;-64
2022/12/14 13:26:16;;;;;;;20.63;11.30;;;1.90;99.90;;;;;;5102775;28;20048;-64
2022/12/14 13:29:09;;;;;;;17.63;10.18;;;1.90;99.90;;;;;;5089169;28;20048;-64
2022/12/14 13:31:42;;;;;;;22.58;11.02;;;;;;;;;;5086084;28;20040;-64
2022/12/14 13:34:24;;;;;;;19.17;11.38;;;1.60;99.90;;;;;;5091993;28;20043;-64
2022/12/14 13:37:12;;;;;;;18.98;10.18;;;1.50;99.90;;;;;;5096079;28;20033;-64
2022/12/14 13:40:09;;;;;;;19.10;10.80;;;1.50;99.90;;;;;;5075760;28;20049;-64
2022/12/14 13:43:04;;;;;;;20.15;11.15;;;1.30;99.90;;;;;;5080313;28;20485;-64
2022/12/14 13:45:34;;;;;;;19.80;10.38;;;;;;;;;;5084775;28;20051;-64
2022/12/14 13:48:00;;;;;;;20.95;11.85;;;1.10;99.90;;;;;;5115761;28;20075;-64
2022/12/14 13:50:29;;;;;;;18.90;10.77;;;1.20;99.90;;;;;;5091306;28;20506;-64
2022/12/14 13:53:00;;;;;;;19.45;10.13;;;1.10;99.90;;;;;;5094376;28;20397;-64
2022/12/14 13:55:33;;;;;;;17.25;9.93;;;0.90;99.90;;;;;;5076571;28;20035;-65
2022/12/14 13:58:20;;;;;;;17.70;9.90;;;1.20;99.90;;;;;;5079593;28;20122;-64
2022/12/14 14:00:52;;;;;;;17.88;9.85;;;1.00;99.90;;;;;;5086448;28;20044;-65
2022/12/14 14:03:54;;;;;;;15.70;9.30;;;0.90;99.90;;;;;;5104289;28;20036;-64
2022/12/14 14:06:32;;;;;;;15.40;9.27;;;0.80;99.90;;;;;;5041674;28;20073;-64
2022/12/14 14:09:02;;;;;;;19.08;10.38;;;;;;;;;;5100520;28;20097;-64
2022/12/14 14:11:43;;;;;;;19.25;9.73;;;0.80;99.90;;;;;;5045968;28;20097;-64
2022/12/14 14:14:39;;;;;;;17.98;9.52;;;0.70;99.90;;;;;;5095053;28;20032;-64
2022/12/14 14:17:24;;;;;;;16.70;10.27;;;0.70;99.90;;;;;;5103553;28;20379;-64